createdAt,value
2023-01-20T00:01:47.249Z,100.00
2023-01-20T00:04:19.539Z,100.00
2023-01-20T00:06:51.716Z,100.00
2023-01-20T00:09:23.758Z,100.00
2023-01-20T00:11:56.513Z,100.00
2023-01-20T00:14:28.650Z,100.00
2023-01-20T00:17:01.433Z,100.00
2023-01-20T00:19:33.572Z,100.00
2023-01-20T00:22:05.724Z,100.00
2023-01-20T00:24:37.766Z,100.00
2023-01-20T00:27:10.540Z,100.00
2023-01-20T00:29:43.655Z,100.00
2023-01-20T00:32:16.051Z,100.00
2023-01-20T00:34:48.063Z,100.00
2023-01-20T00:37:20.103Z,100.00
2023-01-20T00:39:52.114Z,100.00
2023-01-20T00:42:24.920Z,100.00
2023-01-20T00:44:56.952Z,100.00
2023-01-20T00:47:29.023Z,100.00
2023-01-20T00:50:01.541Z,100.00
2023-01-20T00:52:33.706Z,100.00
2023-01-20T00:55:06.119Z,99.53
2023-01-20T00:57:38.864Z,100.00
2023-01-20T01:00:11.321Z,99.85
2023-01-20T01:02:43.459Z,100.00
2023-01-20T01:05:15.692Z,100.00
2023-01-20T01:07:48.008Z,100.00
2023-01-20T01:10:20.028Z,100.00
2023-01-20T01:12:53.040Z,100.00
2023-01-20T01:15:25.058Z,99.40
2023-01-20T01:17:57.781Z,100.00
2023-01-20T01:20:29.931Z,100.00
2023-01-20T01:23:02.081Z,99.18
2023-01-20T01:25:34.115Z,99.73
2023-01-20T01:28:06.885Z,100.00
2023-01-20T01:30:38.977Z,99.27
2023-01-20T01:33:11.599Z,100.00
2023-01-20T01:35:43.647Z,99.79
2023-01-20T01:38:15.732Z,100.00
2023-01-20T01:40:48.412Z,99.60
2023-01-20T01:43:22.414Z,100.00
2023-01-20T01:45:54.758Z,99.85
2023-01-20T01:48:28.456Z,98.40
2023-01-20T01:51:02.543Z,98.26
2023-01-20T01:53:39.539Z,99.29
2023-01-20T01:56:11.765Z,99.19
2023-01-20T01:58:47.175Z,99.04
2023-01-20T02:01:20.128Z,98.44
2023-01-20T02:03:55.636Z,97.95
2023-01-20T02:06:29.796Z,98.22
2023-01-20T02:09:03.070Z,98.80
2023-01-20T02:11:36.628Z,98.52
2023-01-20T02:14:09.458Z,98.85
2023-01-20T02:16:48.620Z,100.00
2023-01-20T02:19:30.889Z,100.00
2023-01-20T02:22:10.030Z,100.00
2023-01-20T02:25:08.944Z,100.00
2023-01-20T02:27:47.515Z,100.00
2023-01-20T02:30:34.436Z,100.00
2023-01-20T02:33:10.151Z,100.00
2023-01-20T02:35:45.390Z,100.00
2023-01-20T02:38:26.861Z,100.00
2023-01-20T02:41:06.499Z,100.00
2023-01-20T02:43:43.030Z,100.00
2023-01-20T02:46:20.791Z,100.00
2023-01-20T02:48:55.059Z,100.00
2023-01-20T02:51:30.319Z,100.00
2023-01-20T02:54:05.867Z,100.00
2023-01-20T02:56:38.452Z,100.00
2023-01-20T02:59:11.740Z,100.00
2023-01-20T03:01:47.937Z,100.00
2023-01-20T03:04:23.276Z,100.00
2023-01-20T03:06:58.547Z,100.00
2023-01-20T03:09:33.307Z,100.00
2023-01-20T03:12:09.856Z,100.00
2023-01-20T03:14:42.019Z,100.00
2023-01-20T03:17:14.108Z,100.00
2023-01-20T03:19:46.907Z,100.00
2023-01-20T03:22:18.958Z,100.00
2023-01-20T03:24:51.524Z,100.00
2023-01-20T03:27:23.861Z,100.00
2023-01-20T03:29:56.240Z,100.00
2023-01-20T03:32:28.893Z,100.00
2023-01-20T03:35:01.868Z,100.00
2023-01-20T03:37:34.094Z,100.00
2023-01-20T03:40:06.909Z,100.00
2023-01-20T03:42:43.514Z,100.00
2023-01-20T03:45:20.152Z,100.00
2023-01-20T03:47:56.730Z,100.00
2023-01-20T03:50:36.119Z,100.00
2023-01-20T03:53:15.666Z,100.00
2023-01-20T03:55:50.033Z,100.00
2023-01-20T03:58:25.555Z,100.00
2023-01-20T04:00:58.432Z,100.00
2023-01-20T04:03:32.341Z,100.00
2023-01-20T04:06:07.288Z,100.00
2023-01-20T04:08:41.488Z,100.00
2023-01-20T04:11:13.639Z,100.00
2023-01-20T04:13:45.800Z,100.00
2023-01-20T04:16:19.046Z,100.00
2023-01-20T04:18:51.643Z,100.00
2023-01-20T04:21:29.568Z,100.00
2023-01-20T04:24:04.942Z,100.00
2023-01-20T04:26:37.052Z,100.00
2023-01-20T04:29:12.014Z,100.00
2023-01-20T04:31:45.082Z,100.00
2023-01-20T04:34:17.170Z,100.00
2023-01-20T04:36:49.900Z,100.00
2023-01-20T04:39:22.356Z,100.00
2023-01-20T04:41:54.437Z,100.00
2023-01-20T04:44:26.524Z,100.00
2023-01-20T04:46:58.741Z,100.00
2023-01-20T04:49:30.883Z,100.00
2023-01-20T04:52:03.789Z,100.00
2023-01-20T04:54:35.831Z,100.00
2023-01-20T04:57:07.988Z,100.00
2023-01-20T04:59:41.276Z,100.00
2023-01-20T05:02:13.466Z,100.00
2023-01-20T05:04:45.558Z,100.00
2023-01-20T05:07:18.427Z,100.00
2023-01-20T05:09:50.418Z,100.00
2023-01-20T05:12:22.558Z,100.00
2023-01-20T05:14:54.893Z,100.00
2023-01-20T05:17:26.920Z,100.00
2023-01-20T05:19:59.006Z,100.00
2023-01-20T05:22:32.489Z,100.00
2023-01-20T05:25:05.235Z,100.00
2023-01-20T05:27:37.496Z,100.00
2023-01-20T05:30:10.717Z,100.00
2023-01-20T05:32:48.356Z,100.00
2023-01-20T05:35:20.590Z,100.00
2023-01-20T05:37:54.097Z,100.00
2023-01-20T05:40:26.512Z,100.00
2023-01-20T05:42:58.781Z,100.00
2023-01-20T05:45:31.707Z,100.00
2023-01-20T05:48:04.108Z,100.00
2023-01-20T05:50:36.152Z,100.00
2023-01-20T05:53:08.895Z,100.00
2023-01-20T05:55:40.929Z,100.00
2023-01-20T05:58:14.076Z,100.00
2023-01-20T06:00:46.071Z,100.00
2023-01-20T06:03:18.132Z,100.00
2023-01-20T06:05:50.138Z,100.00
2023-01-20T06:08:22.850Z,100.00
2023-01-20T06:10:54.968Z,100.00
2023-01-20T06:13:27.066Z,100.00
2023-01-20T06:15:59.045Z,100.00
2023-01-20T06:18:31.103Z,100.00
2023-01-20T06:21:03.260Z,100.00
2023-01-20T06:23:36.070Z,100.00
2023-01-20T06:26:08.846Z,100.00
2023-01-20T06:28:41.199Z,100.00
2023-01-20T06:31:14.617Z,100.00
2023-01-20T06:33:46.804Z,100.00
2023-01-20T06:36:18.845Z,100.00
2023-01-20T06:38:52.377Z,100.00
2023-01-20T06:41:25.360Z,100.00
2023-01-20T06:43:57.435Z,100.00
2023-01-20T06:46:29.715Z,100.00
2023-01-20T06:49:01.786Z,100.00
2023-01-20T06:51:33.929Z,100.00
2023-01-20T06:54:06.590Z,100.00
2023-01-20T06:56:38.747Z,100.00
2023-01-20T06:59:11.268Z,100.00
2023-01-20T07:01:43.332Z,100.00
2023-01-20T07:04:15.512Z,100.00
2023-01-20T07:06:47.552Z,100.00
2023-01-20T07:09:20.211Z,100.00
2023-01-20T07:11:52.343Z,100.00
2023-01-20T07:14:24.524Z,100.00
2023-01-20T07:16:56.528Z,100.00
2023-01-20T07:19:28.646Z,100.00
2023-01-20T07:22:00.887Z,100.00
2023-01-20T07:24:33.569Z,100.00
2023-01-20T07:27:05.579Z,100.00
2023-01-20T07:29:37.821Z,100.00
2023-01-20T07:32:09.830Z,100.00
2023-01-20T07:34:41.972Z,100.00
2023-01-20T07:37:14.032Z,100.00
2023-01-20T07:39:46.668Z,100.00
2023-01-20T07:42:18.933Z,100.00
2023-01-20T07:44:51.112Z,100.00
2023-01-20T07:47:23.190Z,100.00
2023-01-20T07:49:55.235Z,100.00
2023-01-20T07:52:27.672Z,100.00
2023-01-20T07:55:00.335Z,100.00
2023-01-20T07:57:32.862Z,100.00
2023-01-20T08:00:05.701Z,100.00
2023-01-20T08:02:39.535Z,100.00
2023-01-20T08:05:11.684Z,100.00
2023-01-20T08:07:43.939Z,100.00
2023-01-20T08:10:16.944Z,100.00
2023-01-20T08:12:48.945Z,100.00
2023-01-20T08:15:21.054Z,100.00
2023-01-20T08:17:53.393Z,100.00
2023-01-20T08:20:25.488Z,100.00
2023-01-20T08:22:57.520Z,100.00
2023-01-20T08:25:30.223Z,100.00
2023-01-20T08:28:03.839Z,100.00
2023-01-20T08:30:37.446Z,100.00
2023-01-20T08:33:09.482Z,100.00
2023-01-20T08:35:41.493Z,100.00
2023-01-20T08:38:13.919Z,100.00
2023-01-20T08:40:47.404Z,100.00
2023-01-20T08:43:19.695Z,100.00
2023-01-20T08:45:58.005Z,100.00
2023-01-20T08:48:30.328Z,100.00
2023-01-20T08:51:03.129Z,100.00
2023-01-20T08:53:35.674Z,100.00
2023-01-20T08:56:08.699Z,100.00
2023-01-20T08:58:41.142Z,100.00
2023-01-20T09:01:14.867Z,100.00
2023-01-20T09:04:03.351Z,100.00
2023-01-20T09:06:37.859Z,100.00
2023-01-20T09:09:10.810Z,100.00
2023-01-20T09:11:49.890Z,100.00
2023-01-20T09:14:22.683Z,100.00
2023-01-20T09:16:54.664Z,100.00
2023-01-20T09:19:26.875Z,100.00
2023-01-20T09:21:58.894Z,100.00
2023-01-20T09:24:30.984Z,100.00
2023-01-20T09:27:03.831Z,100.00
2023-01-20T09:29:36.152Z,100.00
2023-01-20T09:32:08.363Z,100.00
2023-01-20T09:34:40.545Z,100.00
2023-01-20T09:37:30.590Z,100.00
2023-01-20T09:40:21.233Z,100.00
2023-01-20T09:43:18.714Z,100.00
2023-01-20T09:45:53.387Z,100.00
2023-01-20T09:48:51.746Z,100.00
2023-01-20T09:51:44.408Z,100.00
2023-01-20T09:54:20.322Z,100.00
2023-01-20T09:56:54.243Z,100.00
2023-01-20T09:59:30.077Z,100.00
2023-01-20T10:02:05.195Z,100.00
2023-01-20T10:04:39.341Z,100.00
2023-01-20T10:07:12.752Z,100.00
2023-01-20T10:09:49.384Z,100.00
2023-01-20T10:12:25.140Z,100.00
2023-01-20T10:15:03.499Z,100.00
2023-01-20T10:17:37.573Z,100.00
2023-01-20T10:20:11.385Z,100.00
2023-01-20T10:22:47.585Z,100.00
2023-01-20T10:25:22.391Z,100.00
2023-01-20T10:27:55.964Z,100.00
2023-01-20T10:30:31.203Z,100.00
2023-01-20T10:33:08.050Z,100.00
2023-01-20T10:35:42.798Z,100.00
2023-01-20T10:38:19.291Z,100.00
2023-01-20T10:40:54.247Z,100.00
2023-01-20T10:43:26.505Z,100.00
2023-01-20T10:46:12.691Z,100.00
2023-01-20T10:49:00.119Z,100.00
2023-01-20T10:51:34.521Z,100.00
2023-01-20T10:54:12.012Z,100.00
2023-01-20T10:56:52.545Z,100.00
2023-01-20T10:59:28.708Z,100.00
2023-01-20T11:02:12.037Z,100.00
2023-01-20T11:04:45.688Z,100.00
2023-01-20T11:07:18.360Z,100.00
2023-01-20T11:09:50.583Z,100.00
2023-01-20T11:12:25.340Z,100.00
2023-01-20T11:15:00.135Z,100.00
2023-01-20T11:17:33.293Z,100.00
2023-01-20T11:20:06.105Z,100.00
2023-01-20T11:22:38.290Z,100.00
2023-01-20T11:25:22.251Z,100.00
2023-01-20T11:27:54.321Z,100.00
2023-01-20T11:30:28.379Z,100.00
2023-01-20T11:33:17.196Z,100.00
2023-01-20T11:36:00.362Z,100.00
2023-01-20T11:38:40.672Z,100.00
2023-01-20T11:41:20.074Z,100.00
2023-01-20T11:43:54.651Z,100.00
2023-01-20T11:46:28.643Z,100.00
2023-01-20T11:49:15.472Z,100.00
2023-01-20T11:51:49.465Z,100.00
2023-01-20T11:54:22.450Z,100.00
2023-01-20T11:56:56.325Z,100.00
2023-01-20T11:59:28.961Z,100.00
2023-01-20T12:02:02.461Z,100.00
2023-01-20T12:05:07.775Z,100.00
2023-01-20T12:07:42.604Z,100.00
2023-01-20T12:10:17.338Z,100.00
2023-01-20T12:12:51.383Z,100.00
2023-01-20T12:15:24.992Z,100.00
2023-01-20T12:17:59.240Z,100.00
2023-01-20T12:20:45.679Z,100.00
2023-01-20T12:23:29.761Z,100.00
2023-01-20T12:26:02.657Z,100.00
2023-01-20T12:28:38.485Z,100.00
2023-01-20T12:31:11.049Z,100.00
2023-01-20T12:33:43.886Z,100.00
2023-01-20T12:36:24.318Z,100.00
2023-01-20T12:39:11.248Z,100.00
2023-01-20T12:41:53.749Z,100.00
2023-01-20T12:44:29.577Z,100.00
2023-01-20T12:47:05.999Z,100.00
2023-01-20T12:49:47.774Z,100.00
2023-01-20T12:52:26.854Z,100.00
2023-01-20T12:55:06.353Z,100.00
2023-01-20T12:57:43.736Z,100.00
2023-01-20T13:00:22.501Z,100.00
2023-01-20T13:03:15.259Z,100.00
2023-01-20T13:06:05.651Z,100.00
2023-01-20T13:08:41.613Z,100.00
2023-01-20T13:11:17.318Z,100.00
2023-01-20T13:13:58.718Z,100.00
2023-01-20T13:16:33.926Z,100.00
2023-01-20T13:19:08.137Z,100.00
2023-01-20T13:21:41.945Z,100.00
2023-01-20T13:24:18.173Z,100.00
2023-01-20T13:26:50.767Z,100.00
2023-01-20T13:29:39.927Z,100.00
2023-01-20T13:32:34.086Z,100.00
2023-01-20T13:35:21.008Z,100.00
2023-01-20T13:37:54.527Z,100.00
2023-01-20T13:40:44.952Z,100.00
2023-01-20T13:43:31.853Z,100.00
2023-01-20T13:46:22.336Z,100.00
2023-01-20T13:49:14.373Z,100.00
2023-01-20T13:51:47.451Z,100.00
2023-01-20T13:54:38.104Z,100.00
2023-01-20T13:57:37.129Z,100.00
2023-01-20T14:00:13.443Z,100.00
2023-01-20T14:02:49.650Z,100.00
2023-01-20T14:05:32.136Z,100.00
2023-01-20T14:08:12.984Z,100.00
2023-01-20T14:10:45.210Z,100.00
2023-01-20T14:13:27.288Z,100.00
2023-01-20T14:15:59.310Z,100.00
2023-01-20T14:18:31.520Z,100.00
2023-01-20T14:21:05.264Z,100.00
2023-01-20T14:23:38.777Z,100.00
2023-01-20T14:26:11.731Z,100.00
2023-01-20T14:28:48.267Z,100.00
2023-01-20T14:31:29.550Z,100.00
2023-01-20T14:34:03.376Z,100.00
2023-01-20T14:36:35.504Z,100.00
2023-01-20T14:39:15.471Z,100.00
2023-01-20T14:41:48.560Z,100.00
2023-01-20T14:44:21.527Z,100.00
2023-01-20T14:46:55.303Z,100.00
2023-01-20T14:49:30.503Z,100.00
2023-01-20T14:52:03.696Z,100.00
2023-01-20T14:54:37.751Z,100.00
2023-01-20T14:57:19.088Z,100.00
2023-01-20T15:00:14.685Z,100.00
2023-01-20T15:02:52.758Z,100.00
2023-01-20T15:05:34.399Z,100.00
2023-01-20T15:08:15.730Z,100.00
2023-01-20T15:11:09.620Z,100.00
2023-01-20T15:13:42.418Z,100.00
2023-01-20T15:16:16.944Z,100.00
2023-01-20T15:19:03.862Z,100.00
2023-01-20T15:21:35.908Z,100.00
2023-01-20T15:24:12.035Z,100.00
2023-01-20T15:26:45.485Z,100.00
2023-01-20T15:29:19.473Z,100.00
2023-01-20T15:31:52.310Z,100.00
2023-01-20T15:34:24.835Z,100.00
2023-01-20T15:36:56.920Z,100.00
2023-01-20T15:39:29.668Z,100.00
2023-01-20T15:42:02.385Z,100.00
2023-01-20T15:44:34.416Z,100.00
2023-01-20T15:47:12.521Z,100.00
2023-01-20T15:49:44.820Z,100.00
2023-01-20T15:52:16.850Z,100.00
2023-01-20T15:54:49.007Z,100.00
2023-01-20T15:57:21.705Z,100.00
2023-01-20T15:59:53.860Z,100.00
2023-01-20T16:02:25.941Z,100.00
2023-01-20T16:04:58.094Z,100.00
2023-01-20T16:07:30.144Z,100.00
2023-01-20T16:10:02.232Z,100.00
2023-01-20T16:12:34.915Z,100.00
2023-01-20T16:15:07.637Z,100.00
2023-01-20T16:17:39.663Z,100.00
2023-01-20T16:20:18.136Z,100.00
2023-01-20T16:22:50.827Z,100.00
2023-01-20T16:25:24.055Z,100.00
2023-01-20T16:27:57.292Z,100.00
2023-01-20T16:30:29.434Z,100.00
2023-01-20T16:33:01.545Z,100.00
2023-01-20T16:35:33.602Z,100.00
2023-01-20T16:38:05.739Z,100.00
2023-01-20T16:40:43.961Z,100.00
2023-01-20T16:43:17.324Z,100.00
2023-01-20T16:45:53.568Z,100.00
2023-01-20T16:48:25.760Z,100.00
2023-01-20T16:51:03.725Z,100.00
2023-01-20T16:53:35.893Z,100.00
2023-01-20T16:56:12.212Z,100.00
2023-01-20T16:58:46.808Z,100.00
2023-01-20T17:01:23.832Z,100.00
2023-01-20T17:03:58.009Z,100.00
2023-01-20T17:06:31.305Z,100.00
2023-01-20T17:09:04.132Z,100.00
2023-01-20T17:11:37.740Z,100.00
2023-01-20T17:14:10.911Z,100.00
2023-01-20T17:16:43.054Z,100.00
2023-01-20T17:19:17.538Z,100.00
2023-01-20T17:21:50.446Z,100.00
2023-01-20T17:24:22.558Z,100.00
2023-01-20T17:26:54.893Z,100.00
2023-01-20T17:29:27.653Z,100.00
2023-01-20T17:31:59.848Z,100.00
2023-01-20T17:34:31.934Z,100.00
2023-01-20T17:37:04.153Z,100.00
2023-01-20T17:39:36.612Z,100.00
2023-01-20T17:42:08.659Z,100.00
2023-01-20T17:44:41.402Z,100.00
2023-01-20T17:47:13.635Z,100.00
2023-01-20T17:49:45.663Z,100.00
2023-01-20T17:52:19.581Z,100.00
2023-01-20T17:54:51.647Z,100.00
2023-01-20T17:57:25.076Z,100.00
2023-01-20T17:59:59.576Z,100.00
2023-01-20T18:02:31.653Z,100.00
2023-01-20T18:05:03.997Z,100.00
2023-01-20T18:07:36.591Z,100.00
2023-01-20T18:10:09.365Z,100.00
2023-01-20T18:12:41.442Z,100.00
2023-01-20T18:15:14.188Z,100.00
2023-01-20T18:17:46.433Z,100.00
2023-01-20T18:20:18.658Z,100.00
2023-01-20T18:22:50.841Z,100.00
2023-01-20T18:25:22.957Z,100.00
2023-01-20T18:27:55.382Z,100.00
2023-01-20T18:30:28.166Z,100.00
2023-01-20T18:33:00.243Z,100.00
2023-01-20T18:35:32.995Z,100.00
2023-01-20T18:38:05.237Z,100.00
2023-01-20T18:40:37.313Z,100.00
2023-01-20T18:43:09.453Z,100.00
2023-01-20T18:45:42.150Z,100.00
2023-01-20T18:48:14.522Z,100.00
2023-01-20T18:50:46.630Z,100.00
2023-01-20T18:53:18.976Z,100.00
2023-01-20T18:55:51.018Z,100.00
2023-01-20T18:58:23.464Z,100.00
2023-01-20T19:01:02.008Z,100.00
2023-01-20T19:03:35.156Z,100.00
2023-01-20T19:06:10.087Z,100.00
2023-01-20T19:08:42.723Z,100.00
2023-01-20T19:11:17.531Z,100.00
2023-01-20T19:13:50.714Z,100.00
2023-01-20T19:16:24.115Z,100.00
2023-01-20T19:18:57.116Z,100.00
2023-01-20T19:21:30.697Z,100.00
2023-01-20T19:24:05.205Z,100.00
2023-01-20T19:26:38.289Z,100.00
2023-01-20T19:29:11.150Z,100.00
2023-01-20T19:31:44.075Z,100.00
2023-01-20T19:34:17.373Z,100.00
2023-01-20T19:36:50.077Z,100.00
2023-01-20T19:39:22.273Z,100.00
2023-01-20T19:41:54.683Z,100.00
2023-01-20T19:44:28.379Z,100.00
2023-01-20T19:47:04.512Z,100.00
2023-01-20T19:49:36.792Z,100.00
2023-01-20T19:52:08.962Z,100.00
2023-01-20T19:54:41.175Z,100.00
2023-01-20T19:57:13.235Z,100.00
2023-01-20T19:59:45.249Z,100.00
2023-01-20T20:02:18.115Z,100.00
2023-01-20T20:04:51.423Z,100.00
2023-01-20T20:07:23.730Z,100.00
2023-01-20T20:09:55.736Z,100.00
2023-01-20T20:12:27.921Z,100.00
2023-01-20T20:14:59.916Z,100.00
2023-01-20T20:17:34.398Z,100.00
2023-01-20T20:20:07.184Z,100.00
2023-01-20T20:22:39.316Z,100.00
2023-01-20T20:25:11.459Z,100.00
2023-01-20T20:27:43.722Z,100.00
2023-01-20T20:30:17.206Z,100.00
2023-01-20T20:32:50.259Z,100.00
2023-01-20T20:35:22.364Z,100.00
2023-01-20T20:37:54.488Z,100.00
2023-01-20T20:40:26.549Z,100.00
2023-01-20T20:42:58.688Z,100.00
2023-01-20T20:45:30.861Z,100.00
2023-01-20T20:48:04.209Z,100.00
2023-01-20T20:50:36.501Z,100.00
2023-01-20T20:53:08.708Z,100.00
2023-01-20T20:55:41.204Z,100.00
2023-01-20T20:58:13.804Z,100.00
2023-01-20T21:00:49.692Z,100.00
2023-01-20T21:03:22.653Z,100.00
2023-01-20T21:05:55.104Z,100.00
2023-01-20T21:08:27.305Z,100.00
2023-01-20T21:11:01.099Z,100.00
2023-01-20T21:13:33.662Z,100.00
2023-01-20T21:16:09.038Z,100.00
2023-01-20T21:18:41.882Z,100.00
2023-01-20T21:21:16.286Z,100.00
2023-01-20T21:23:48.699Z,100.00
2023-01-20T21:26:21.316Z,100.00
2023-01-20T21:28:53.406Z,100.00
2023-01-20T21:31:26.017Z,100.00
2023-01-20T21:33:59.685Z,100.00
2023-01-20T21:36:33.337Z,100.00
2023-01-20T21:39:05.467Z,100.00
2023-01-20T21:41:37.574Z,100.00
2023-01-20T21:44:28.071Z,100.00
2023-01-20T21:47:01.461Z,100.00
2023-01-20T21:49:52.931Z,100.00
2023-01-20T21:52:44.586Z,100.00
2023-01-20T21:55:18.472Z,100.00
2023-01-20T21:57:51.508Z,100.00
2023-01-20T22:00:23.760Z,100.00
2023-01-20T22:02:55.889Z,100.00
2023-01-20T22:05:28.733Z,100.00
2023-01-20T22:08:01.048Z,100.00
2023-01-20T22:10:33.036Z,100.00
2023-01-20T22:13:06.323Z,100.00
2023-01-20T22:15:40.347Z,100.00
2023-01-20T22:18:12.566Z,100.00
2023-01-20T22:20:45.276Z,100.00
2023-01-20T22:23:17.338Z,100.00
2023-01-20T22:25:52.246Z,100.00
2023-01-20T22:28:24.684Z,100.00
2023-01-20T22:31:03.789Z,100.00
2023-01-20T22:33:35.856Z,100.00
2023-01-20T22:36:08.901Z,100.00
2023-01-20T22:38:41.162Z,100.00
2023-01-20T22:41:13.407Z,100.00
2023-01-20T22:43:47.233Z,100.00
2023-01-20T22:46:20.479Z,100.00
2023-01-20T22:48:53.484Z,100.00
2023-01-20T22:51:27.001Z,100.00
2023-01-20T22:53:59.667Z,100.00
2023-01-20T22:56:31.994Z,100.00
2023-01-20T22:59:04.147Z,100.00
2023-01-20T23:01:36.663Z,100.00
2023-01-20T23:04:09.763Z,100.00
2023-01-20T23:06:42.746Z,100.00
2023-01-20T23:09:14.717Z,100.00
2023-01-20T23:11:48.179Z,100.00
2023-01-20T23:14:40.217Z,100.00
2023-01-20T23:17:12.294Z,100.00
2023-01-20T23:19:44.357Z,100.00
2023-01-20T23:22:17.127Z,100.00
2023-01-20T23:24:49.251Z,100.00
2023-01-20T23:27:21.503Z,100.00
2023-01-20T23:29:55.035Z,100.00
2023-01-20T23:32:27.144Z,100.00
2023-01-20T23:34:59.217Z,100.00
2023-01-20T23:37:31.989Z,100.00
2023-01-20T23:40:04.331Z,100.00
2023-01-20T23:42:36.392Z,100.00
2023-01-20T23:45:08.740Z,100.00
2023-01-20T23:47:40.841Z,100.00
2023-01-20T23:50:12.900Z,100.00
2023-01-20T23:52:45.755Z,100.00
2023-01-20T23:55:17.784Z,100.00
2023-01-20T23:57:49.884Z,100.00
